createdAt,value
2023-03-25T00:01:18.749Z,0.93
2023-03-25T00:03:46.816Z,1.10
2023-03-25T00:06:14.202Z,0.97
2023-03-25T00:08:41.030Z,1.25
2023-03-25T00:11:11.036Z,1.07
2023-03-25T00:13:40.600Z,1.57
2023-03-25T00:16:10.233Z,1.30
2023-03-25T00:18:37.892Z,1.13
2023-03-25T00:21:07.573Z,1.20
2023-03-25T00:23:36.770Z,1.13
2023-03-25T00:26:04.080Z,1.10
2023-03-25T00:28:43.534Z,1.10
2023-03-25T00:31:14.817Z,1.47
2023-03-25T00:33:44.667Z,1.30
2023-03-25T00:36:18.135Z,1.20
2023-03-25T00:38:49.022Z,1.30
2023-03-25T00:41:25.728Z,1.40
2023-03-25T00:43:57.427Z,1.63
2023-03-25T00:46:29.096Z,1.03
2023-03-25T00:48:57.109Z,1.37
2023-03-25T00:51:25.956Z,1.40
2023-03-25T00:53:55.015Z,1.30
2023-03-25T00:56:23.059Z,1.30
2023-03-25T00:58:49.992Z,1.20
2023-03-25T01:01:23.659Z,1.37
2023-03-25T01:04:01.047Z,1.23
2023-03-25T01:06:34.923Z,1.10
2023-03-25T01:09:04.786Z,1.30
2023-03-25T01:11:38.477Z,1.40
2023-03-25T01:14:11.453Z,1.43
2023-03-25T01:16:38.648Z,1.00
2023-03-25T01:19:05.434Z,1.40
2023-03-25T01:21:36.933Z,1.70
2023-03-25T01:24:05.042Z,2.00
2023-03-25T01:26:31.833Z,1.20
2023-03-25T01:28:59.244Z,1.53
2023-03-25T01:31:30.575Z,1.07
2023-03-25T01:33:58.092Z,1.57
2023-03-25T01:36:29.658Z,1.30
2023-03-25T01:38:59.030Z,1.43
2023-03-25T01:41:35.748Z,1.50
2023-03-25T01:44:29.549Z,1.17
2023-03-25T01:47:01.867Z,1.00
2023-03-25T01:49:33.292Z,1.23
2023-03-25T01:52:03.845Z,1.27
2023-03-25T01:54:31.101Z,1.27
2023-03-25T01:56:58.234Z,1.50
2023-03-25T01:59:27.214Z,1.60
2023-03-25T02:01:56.071Z,1.60
2023-03-25T02:04:39.343Z,1.10
2023-03-25T02:07:14.571Z,1.33
2023-03-25T02:09:41.914Z,1.57
2023-03-25T02:12:09.136Z,1.40
2023-03-25T02:14:37.870Z,1.10
2023-03-25T02:17:29.486Z,1.20
2023-03-25T02:20:21.527Z,1.20
2023-03-25T02:23:14.107Z,1.50
2023-03-25T02:26:14.954Z,1.23
2023-03-25T02:28:55.918Z,1.53
2023-03-25T02:31:29.017Z,1.30
2023-03-25T02:34:09.964Z,1.70
2023-03-25T02:36:52.755Z,1.93
2023-03-25T02:39:29.123Z,2.40
2023-03-25T02:42:06.575Z,1.20
2023-03-25T02:44:39.744Z,1.10
2023-03-25T02:47:10.779Z,1.93
2023-03-25T02:49:44.651Z,1.27
2023-03-25T02:52:22.275Z,1.37
2023-03-25T02:54:51.461Z,1.90
2023-03-25T02:57:20.210Z,1.40
2023-03-25T02:59:48.931Z,1.60
2023-03-25T03:02:17.625Z,1.60
2023-03-25T03:04:49.716Z,1.53
2023-03-25T03:07:23.348Z,1.00
2023-03-25T03:10:06.407Z,1.40
2023-03-25T03:12:36.375Z,2.27
2023-03-25T03:15:28.114Z,1.40
2023-03-25T03:18:13.573Z,1.70
2023-03-25T03:20:50.173Z,1.33
2023-03-25T03:23:34.070Z,0.93
2023-03-25T03:26:22.042Z,1.40
2023-03-25T03:28:55.563Z,1.40
2023-03-25T03:31:48.236Z,1.40
2023-03-25T03:34:44.819Z,1.27
2023-03-25T03:37:14.978Z,1.73
2023-03-25T03:39:42.509Z,1.80
2023-03-25T03:42:13.422Z,1.73
2023-03-25T03:44:42.924Z,1.73
2023-03-25T03:47:14.058Z,1.90
2023-03-25T03:49:45.356Z,2.13
2023-03-25T03:52:17.177Z,1.97
2023-03-25T03:55:19.151Z,1.77
2023-03-25T03:57:52.531Z,2.03
2023-03-25T04:00:24.150Z,1.60
2023-03-25T04:03:02.467Z,1.50
2023-03-25T04:05:32.418Z,2.30
2023-03-25T04:08:11.993Z,1.90
2023-03-25T04:10:46.899Z,1.70
2023-03-25T04:13:15.062Z,1.83
2023-03-25T04:15:42.888Z,2.20
2023-03-25T04:18:09.674Z,2.20
2023-03-25T04:20:36.787Z,2.10
2023-03-25T04:23:04.944Z,2.00
2023-03-25T04:25:34.972Z,1.80
2023-03-25T04:28:01.874Z,1.80
2023-03-25T04:30:29.164Z,1.80
2023-03-25T04:32:56.593Z,1.90
2023-03-25T04:35:25.805Z,1.87
2023-03-25T04:37:57.434Z,1.60
2023-03-25T04:40:25.832Z,2.73
2023-03-25T04:42:53.396Z,1.90
2023-03-25T04:45:21.759Z,1.40
2023-03-25T04:47:49.537Z,1.67
2023-03-25T04:50:19.213Z,1.60
2023-03-25T04:52:46.534Z,1.40
2023-03-25T04:55:17.740Z,1.87
2023-03-25T04:57:46.215Z,1.43
2023-03-25T05:00:18.277Z,1.70
2023-03-25T05:02:50.780Z,1.57
2023-03-25T05:05:20.246Z,1.70
2023-03-25T05:07:53.193Z,1.60
2023-03-25T05:10:22.119Z,1.80
2023-03-25T05:12:49.200Z,1.20
2023-03-25T05:15:19.228Z,1.70
2023-03-25T05:17:46.266Z,1.60
2023-03-25T05:20:14.717Z,1.30
2023-03-25T05:22:42.320Z,1.40
2023-03-25T05:25:10.646Z,1.30
2023-03-25T05:27:38.856Z,1.07
2023-03-25T05:30:09.556Z,1.30
2023-03-25T05:32:36.986Z,1.43
2023-03-25T05:35:04.597Z,1.20
2023-03-25T05:37:32.403Z,1.37
2023-03-25T05:39:59.274Z,1.50
2023-03-25T05:42:26.160Z,1.30
2023-03-25T05:44:53.781Z,1.40
2023-03-25T05:47:23.863Z,1.43
2023-03-25T05:49:52.063Z,1.70
2023-03-25T05:52:20.037Z,1.60
2023-03-25T05:54:50.751Z,1.67
2023-03-25T05:57:17.569Z,1.77
2023-03-25T05:59:44.491Z,1.60
2023-03-25T06:02:14.163Z,1.33
2023-03-25T06:04:43.832Z,2.33
2023-03-25T06:07:20.267Z,1.50
2023-03-25T06:09:47.640Z,1.70
2023-03-25T06:12:16.388Z,1.70
2023-03-25T06:14:45.450Z,1.80
2023-03-25T06:17:16.637Z,2.00
2023-03-25T06:19:43.462Z,1.93
2023-03-25T06:22:11.817Z,1.53
2023-03-25T06:24:39.763Z,1.67
2023-03-25T06:27:09.357Z,2.03
2023-03-25T06:29:37.359Z,1.80
2023-03-25T06:32:05.621Z,2.00
2023-03-25T06:34:35.178Z,1.20
2023-03-25T06:37:02.368Z,1.73
2023-03-25T06:39:33.769Z,1.73
2023-03-25T06:42:05.898Z,1.67
2023-03-25T06:44:50.122Z,2.03
2023-03-25T06:47:36.259Z,1.87
2023-03-25T06:50:03.097Z,1.23
2023-03-25T06:52:29.925Z,1.30
2023-03-25T06:54:56.877Z,1.57
2023-03-25T06:57:23.878Z,1.90
2023-03-25T06:59:51.343Z,1.77
2023-03-25T07:02:18.321Z,1.60
2023-03-25T07:04:45.313Z,1.60
2023-03-25T07:07:12.325Z,1.83
2023-03-25T07:09:39.392Z,1.80
2023-03-25T07:12:08.945Z,1.67
2023-03-25T07:14:36.319Z,2.00
2023-03-25T07:17:03.139Z,2.03
2023-03-25T07:19:29.943Z,2.40
2023-03-25T07:22:01.392Z,2.27
2023-03-25T07:24:28.966Z,2.30
2023-03-25T07:26:55.714Z,2.13
2023-03-25T07:29:26.156Z,2.77
2023-03-25T07:31:53.432Z,1.80
2023-03-25T07:34:20.515Z,1.57
2023-03-25T07:36:47.344Z,2.13
2023-03-25T07:39:14.306Z,1.83
2023-03-25T07:41:43.207Z,1.80
2023-03-25T07:44:21.548Z,2.00
2023-03-25T07:46:49.707Z,2.13
2023-03-25T07:49:17.120Z,2.13
2023-03-25T07:51:44.914Z,2.03
2023-03-25T07:54:12.087Z,1.73
2023-03-25T07:56:39.137Z,2.47
2023-03-25T07:59:06.168Z,1.97
2023-03-25T08:01:33.012Z,2.40
2023-03-25T08:04:00.080Z,2.37
2023-03-25T08:06:27.264Z,1.70
2023-03-25T08:08:55.725Z,2.47
2023-03-25T08:11:22.606Z,2.13
2023-03-25T08:13:49.482Z,2.03
2023-03-25T08:16:22.304Z,2.43
2023-03-25T08:18:52.827Z,2.57
2023-03-25T08:21:30.103Z,2.37
2023-03-25T08:24:04.702Z,1.90
2023-03-25T08:26:34.043Z,2.00
2023-03-25T08:29:02.856Z,2.23
2023-03-25T08:31:32.271Z,1.97
2023-03-25T08:34:02.733Z,1.90
2023-03-25T08:36:29.609Z,2.10
2023-03-25T08:38:56.509Z,2.53
2023-03-25T08:41:23.458Z,2.63
2023-03-25T08:43:50.653Z,2.10
2023-03-25T08:46:17.666Z,1.87
2023-03-25T08:48:44.662Z,2.37
2023-03-25T08:51:11.655Z,2.47
2023-03-25T08:53:38.686Z,2.37
2023-03-25T08:56:07.255Z,2.00
2023-03-25T08:58:34.062Z,2.00
2023-03-25T09:01:01.137Z,2.30
2023-03-25T09:03:28.933Z,2.10
2023-03-25T09:05:56.010Z,2.73
2023-03-25T09:08:22.872Z,2.50
2023-03-25T09:10:49.950Z,3.07
2023-03-25T09:13:16.848Z,2.33
2023-03-25T09:15:43.829Z,2.73
2023-03-25T09:18:10.719Z,1.73
2023-03-25T09:20:37.676Z,2.20
2023-03-25T09:23:04.693Z,2.07
2023-03-25T09:25:31.627Z,2.27
2023-03-25T09:27:58.426Z,2.10
2023-03-25T09:30:28.651Z,2.67
2023-03-25T09:32:56.167Z,2.60
2023-03-25T09:35:23.122Z,2.50
2023-03-25T09:37:51.830Z,2.80
2023-03-25T09:40:21.063Z,2.30
2023-03-25T09:43:26.809Z,2.10
2023-03-25T09:45:55.666Z,3.00
2023-03-25T09:48:43.455Z,3.00
2023-03-25T09:51:32.219Z,2.37
2023-03-25T09:54:04.232Z,2.80
2023-03-25T09:56:36.451Z,2.50
2023-03-25T09:59:17.926Z,3.63
2023-03-25T10:02:05.946Z,3.10
2023-03-25T10:04:47.839Z,2.40
2023-03-25T10:07:46.189Z,3.33
2023-03-25T10:10:34.895Z,2.97
2023-03-25T10:13:25.100Z,2.83
2023-03-25T10:16:04.237Z,2.97
2023-03-25T10:18:45.959Z,2.57
2023-03-25T10:21:21.390Z,2.27
2023-03-25T10:24:01.481Z,2.60
2023-03-25T10:26:41.114Z,2.60
2023-03-25T10:29:13.069Z,2.30
2023-03-25T10:31:52.418Z,3.20
2023-03-25T10:34:22.617Z,2.97
2023-03-25T10:36:58.345Z,2.80
2023-03-25T10:39:34.167Z,2.47
2023-03-25T10:42:05.076Z,3.10
2023-03-25T10:44:32.829Z,2.43
2023-03-25T10:47:06.620Z,2.87
2023-03-25T10:49:34.112Z,2.47
2023-03-25T10:52:01.642Z,2.63
2023-03-25T10:54:35.226Z,2.80
2023-03-25T10:57:19.265Z,2.73
2023-03-25T10:59:52.610Z,2.97
2023-03-25T11:02:31.397Z,2.60
2023-03-25T11:05:01.810Z,2.53
2023-03-25T11:07:33.189Z,3.00
2023-03-25T11:10:23.804Z,2.30
2023-03-25T11:12:56.839Z,1.63
2023-03-25T11:15:32.634Z,2.53
2023-03-25T11:18:03.604Z,2.10
2023-03-25T11:20:36.607Z,2.40
2023-03-25T11:23:07.077Z,2.13
2023-03-25T11:25:40.785Z,2.57
2023-03-25T11:28:21.927Z,2.07
2023-03-25T11:31:07.885Z,2.10
2023-03-25T11:33:40.081Z,2.80
2023-03-25T11:36:25.581Z,2.17
2023-03-25T11:39:00.693Z,2.73
2023-03-25T11:41:32.889Z,2.63
2023-03-25T11:44:00.301Z,1.90
2023-03-25T11:46:27.358Z,2.70
2023-03-25T11:48:54.290Z,2.20
2023-03-25T11:51:27.757Z,2.57
2023-03-25T11:54:00.274Z,2.47
2023-03-25T11:56:34.547Z,2.40
2023-03-25T11:59:02.300Z,2.97
2023-03-25T12:01:38.732Z,2.70
2023-03-25T12:04:08.878Z,2.63
2023-03-25T12:06:36.200Z,2.03
2023-03-25T12:09:08.280Z,2.10
2023-03-25T12:11:50.855Z,2.23
2023-03-25T12:14:29.771Z,4.40
2023-03-25T12:17:19.558Z,2.20
2023-03-25T12:20:25.299Z,1.97
2023-03-25T12:23:03.573Z,2.10
2023-03-25T12:25:44.304Z,2.37
2023-03-25T12:28:23.350Z,1.83
2023-03-25T12:30:57.684Z,1.90
2023-03-25T12:33:30.422Z,2.67
2023-03-25T12:36:22.395Z,2.33
2023-03-25T12:39:06.602Z,2.43
2023-03-25T12:42:12.236Z,2.23
2023-03-25T12:45:01.758Z,2.90
2023-03-25T12:47:31.994Z,2.53
2023-03-25T12:50:05.253Z,1.93
2023-03-25T12:52:35.433Z,1.30
2023-03-25T12:55:39.600Z,2.10
2023-03-25T12:58:24.718Z,1.83
2023-03-25T13:01:19.391Z,1.97
2023-03-25T13:04:24.481Z,1.80
2023-03-25T13:07:01.937Z,1.93
2023-03-25T13:09:42.360Z,1.97
2023-03-25T13:12:24.448Z,2.10
2023-03-25T13:14:58.593Z,3.70
2023-03-25T13:17:58.061Z,2.50
2023-03-25T13:20:30.886Z,2.57
2023-03-25T13:23:02.172Z,2.30
2023-03-25T13:25:57.128Z,1.60
2023-03-25T13:28:39.455Z,1.97
2023-03-25T13:31:12.228Z,2.40
2023-03-25T13:33:46.856Z,1.70
2023-03-25T13:36:21.692Z,2.40
2023-03-25T14:50:48.818Z,1.73
2023-03-25T14:53:16.918Z,1.60
2023-03-25T14:55:47.708Z,2.37
2023-03-25T14:58:32.319Z,1.53
2023-03-25T15:01:15.137Z,1.60
2023-03-25T15:03:44.639Z,1.70
2023-03-25T15:06:28.533Z,1.80
2023-03-25T15:09:09.691Z,2.10
2023-03-25T15:11:39.628Z,1.90
2023-03-25T15:14:09.863Z,1.90
2023-03-25T15:16:46.051Z,2.07
2023-03-25T15:19:14.718Z,1.93
2023-03-25T15:22:10.973Z,1.80
2023-03-25T15:24:39.630Z,2.27
2023-03-25T15:27:36.467Z,2.17
2023-03-25T15:30:30.066Z,1.70
2023-03-25T15:33:08.869Z,1.63
2023-03-25T15:36:13.536Z,1.50
2023-03-25T15:38:53.164Z,1.47
2023-03-25T15:41:33.900Z,2.00
2023-03-25T15:44:14.776Z,2.50
2023-03-25T15:46:55.982Z,1.57
2023-03-25T15:49:41.886Z,1.80
2023-03-25T15:52:19.216Z,2.00
2023-03-25T15:54:55.801Z,1.90
2023-03-25T15:57:41.589Z,1.80
2023-03-25T16:00:24.841Z,1.77
2023-03-25T16:03:04.154Z,1.73
2023-03-25T16:05:33.349Z,2.70
2023-03-25T16:08:08.198Z,1.80
2023-03-25T16:10:39.536Z,2.97
2023-03-25T16:13:16.898Z,2.47
2023-03-25T16:15:44.913Z,2.47
2023-03-25T16:18:15.969Z,2.03
2023-03-25T16:20:43.689Z,2.33
2023-03-25T16:23:19.669Z,3.67
2023-03-25T16:25:48.949Z,5.43
2023-03-25T16:28:20.056Z,2.03
2023-03-25T16:30:53.603Z,2.80
2023-03-25T16:33:38.174Z,2.23
2023-03-25T16:36:09.200Z,2.27
2023-03-25T16:38:37.404Z,2.50
2023-03-25T16:41:12.436Z,2.70
2023-03-25T16:43:39.577Z,2.53
2023-03-25T16:46:08.917Z,2.53
2023-03-25T16:48:36.764Z,2.17
2023-03-25T16:51:22.928Z,2.70
2023-03-25T16:53:53.786Z,2.43
2023-03-25T16:56:25.759Z,2.70
2023-03-25T16:59:01.507Z,2.67
2023-03-25T17:01:45.418Z,2.30
2023-03-25T17:04:17.730Z,2.53
2023-03-25T17:06:47.272Z,2.57
2023-03-25T17:09:19.061Z,2.87
2023-03-25T17:11:48.457Z,3.07
2023-03-25T17:14:21.476Z,2.80
2023-03-25T17:16:50.901Z,2.50
2023-03-25T17:19:22.871Z,5.00
2023-03-25T17:22:28.780Z,2.57
2023-03-25T17:24:57.670Z,3.37
2023-03-25T17:27:36.428Z,3.20
2023-03-25T17:30:20.159Z,2.97
2023-03-25T17:32:48.356Z,2.80
2023-03-25T17:35:24.164Z,2.67
2023-03-25T17:37:51.192Z,3.70
2023-03-25T17:40:21.947Z,3.27
2023-03-25T17:42:48.822Z,3.27
2023-03-25T17:45:17.067Z,2.67
2023-03-25T17:47:44.363Z,2.97
2023-03-25T17:50:19.859Z,2.50
2023-03-25T17:52:49.786Z,2.37
2023-03-25T17:55:16.624Z,3.83
2023-03-25T17:57:43.618Z,2.90
2023-03-25T18:00:17.299Z,3.27
2023-03-25T18:02:45.839Z,3.00
2023-03-25T18:05:12.810Z,3.30
2023-03-25T18:07:40.060Z,2.70
2023-03-25T18:10:15.130Z,3.33
2023-03-25T18:12:42.174Z,3.10
2023-03-25T18:15:09.944Z,2.93
2023-03-25T18:17:36.996Z,3.30
2023-03-25T18:20:14.586Z,3.23
2023-03-25T18:22:42.126Z,3.73
2023-03-25T18:25:10.151Z,2.73
2023-03-25T18:27:43.866Z,2.90
2023-03-25T18:30:36.661Z,2.80
2023-03-25T18:33:03.553Z,3.00
2023-03-25T18:35:30.536Z,2.83
2023-03-25T18:37:57.588Z,3.00
2023-03-25T18:40:28.378Z,2.83
2023-03-25T18:42:57.244Z,2.73
2023-03-25T18:45:30.262Z,3.27
2023-03-25T18:47:57.319Z,2.77
2023-03-25T18:50:36.672Z,3.27
2023-03-25T18:53:05.232Z,3.30
2023-03-25T18:55:37.399Z,2.90
2023-03-25T18:58:10.877Z,3.50
2023-03-25T19:00:40.240Z,2.73
2023-03-25T19:03:07.136Z,2.73
2023-03-25T19:05:34.241Z,3.80
2023-03-25T19:08:01.287Z,3.27
2023-03-25T19:10:30.530Z,3.27
2023-03-25T19:12:57.847Z,2.63
2023-03-25T19:15:27.703Z,4.00
2023-03-25T19:18:04.004Z,3.17
2023-03-25T19:20:34.022Z,3.87
2023-03-25T19:23:02.404Z,3.57
2023-03-25T19:25:29.705Z,2.83
2023-03-25T19:27:56.730Z,3.50
2023-03-25T19:30:24.493Z,3.00
2023-03-25T19:32:57.308Z,4.03
2023-03-25T19:35:24.414Z,3.07
2023-03-25T19:37:56.222Z,3.87
2023-03-25T19:40:28.621Z,3.57
2023-03-25T19:42:57.570Z,3.77
2023-03-25T19:45:26.111Z,3.57
2023-03-25T19:47:53.412Z,3.53
2023-03-25T19:50:22.800Z,3.07
2023-03-25T19:52:51.241Z,2.70
2023-03-25T19:55:19.016Z,3.20
2023-03-25T19:57:46.367Z,5.37
2023-03-25T20:00:17.090Z,3.37
2023-03-25T20:02:48.535Z,4.00
2023-03-25T20:05:16.818Z,3.00
2023-03-25T20:07:44.792Z,3.67
2023-03-25T20:10:19.888Z,3.17
2023-03-25T20:12:48.621Z,3.07
2023-03-25T20:15:16.801Z,3.50
2023-03-25T20:17:46.194Z,3.50
2023-03-25T20:20:13.696Z,3.73
2023-03-25T20:22:41.334Z,3.53
2023-03-25T20:25:10.761Z,3.60
2023-03-25T20:27:38.511Z,3.90
2023-03-25T20:30:07.294Z,3.37
2023-03-25T20:32:41.343Z,3.80
2023-03-25T20:35:12.522Z,3.47
2023-03-25T20:37:40.722Z,3.03
2023-03-25T20:40:11.746Z,4.33
2023-03-25T20:42:41.382Z,3.80
2023-03-25T20:45:11.035Z,3.63
2023-03-25T20:47:38.438Z,4.17
2023-03-25T20:50:06.930Z,4.10
2023-03-25T20:52:35.942Z,3.73
2023-03-25T20:55:02.800Z,3.23
2023-03-25T20:57:29.897Z,3.10
2023-03-25T20:59:58.025Z,3.30
2023-03-25T21:02:25.387Z,3.30
2023-03-25T21:04:55.335Z,3.23
2023-03-25T21:07:31.411Z,3.00
2023-03-25T21:09:59.654Z,3.40
2023-03-25T21:12:36.460Z,3.87
2023-03-25T21:15:09.350Z,3.37
2023-03-25T21:17:37.050Z,3.50
2023-03-25T21:20:07.865Z,3.70
2023-03-25T21:22:35.505Z,3.40
2023-03-25T21:25:03.212Z,3.20
2023-03-25T21:27:38.068Z,3.53
2023-03-25T21:30:08.063Z,3.77
2023-03-25T21:32:34.931Z,3.50
2023-03-25T21:35:02.525Z,3.70
2023-03-25T21:37:29.638Z,3.37
2023-03-25T21:39:58.198Z,3.80
2023-03-25T21:42:25.377Z,3.07
2023-03-25T21:44:52.215Z,3.37
2023-03-25T21:47:19.324Z,3.33
2023-03-25T21:49:46.069Z,3.67
2023-03-25T21:52:13.257Z,3.33
2023-03-25T21:54:43.584Z,4.23
2023-03-25T21:57:14.326Z,3.13
2023-03-25T21:59:41.189Z,3.73
2023-03-25T22:02:08.959Z,3.07
2023-03-25T22:04:37.740Z,3.20
2023-03-25T22:07:06.473Z,3.10
2023-03-25T22:09:34.703Z,4.00
2023-03-25T22:12:01.857Z,3.57
2023-03-25T22:14:28.760Z,3.27
2023-03-25T22:16:56.477Z,3.30
2023-03-25T22:19:24.692Z,4.17
2023-03-25T22:21:51.707Z,2.93
2023-03-25T22:24:18.582Z,3.20
2023-03-25T22:26:46.090Z,4.00
2023-03-25T22:29:13.670Z,2.83
2023-03-25T22:31:40.822Z,3.27
2023-03-25T22:34:15.571Z,3.37
2023-03-25T22:36:49.576Z,3.20
2023-03-25T22:39:18.645Z,3.63
2023-03-25T22:41:49.282Z,4.40
2023-03-25T22:44:18.143Z,5.57
2023-03-25T22:46:53.280Z,3.30
2023-03-25T22:49:23.064Z,3.37
2023-03-25T22:51:51.550Z,3.37
2023-03-25T22:54:23.025Z,3.20
2023-03-25T22:56:50.843Z,3.13
2023-03-25T22:59:19.930Z,4.37
2023-03-25T23:01:48.415Z,3.40
2023-03-25T23:04:18.324Z,3.07
2023-03-25T23:06:51.230Z,3.40
2023-03-25T23:09:58.090Z,3.03
2023-03-25T23:12:27.478Z,3.07
2023-03-25T23:14:56.512Z,3.13
2023-03-25T23:17:24.429Z,3.90
2023-03-25T23:19:52.384Z,3.63
2023-03-25T23:22:19.987Z,4.43
2023-03-25T23:24:46.876Z,3.70
2023-03-25T23:27:14.392Z,3.17
2023-03-25T23:29:41.822Z,5.37
2023-03-25T23:32:09.280Z,4.07
2023-03-25T23:34:38.443Z,4.10
2023-03-25T23:37:07.523Z,4.13
2023-03-25T23:39:35.093Z,4.47
2023-03-25T23:42:01.810Z,5.30
2023-03-25T23:44:29.723Z,3.97
2023-03-25T23:46:56.656Z,4.03
2023-03-25T23:49:23.532Z,4.17
2023-03-25T23:51:51.195Z,4.30
2023-03-25T23:54:18.191Z,4.40
2023-03-25T23:56:45.624Z,3.97
2023-03-25T23:59:13.261Z,3.50
